createdAt,value
2019-02-11T00:02:11.725Z,26.50
2019-02-11T00:04:44.452Z,26.50
2019-02-11T00:07:16.623Z,26.50
2019-02-11T00:09:48.902Z,26.50
2019-02-11T00:12:21.048Z,26.50
2019-02-11T00:14:53.531Z,26.50
2019-02-11T00:17:25.845Z,26.50
2019-02-11T00:19:58.043Z,26.50
2019-02-11T00:22:30.752Z,26.50
2019-02-11T00:25:03.354Z,26.50
2019-02-11T00:27:35.826Z,26.50
2019-02-11T00:30:10.563Z,26.60
2019-02-11T00:32:42.824Z,26.60
2019-02-11T00:35:15.026Z,26.60
2019-02-11T00:37:47.702Z,26.60
2019-02-11T00:40:20.144Z,26.70
2019-02-11T00:42:52.359Z,26.80
2019-02-11T00:45:24.742Z,26.90
2019-02-11T00:47:56.998Z,27.00
2019-02-11T00:50:29.506Z,27.00
2019-02-11T00:53:01.792Z,27.00
2019-02-11T00:55:34.184Z,27.10
2019-02-11T00:58:06.475Z,27.00
2019-02-11T01:00:38.886Z,27.00
2019-02-11T01:03:11.460Z,27.10
2019-02-11T01:05:44.154Z,27.00
2019-02-11T01:08:16.339Z,27.10
2019-02-11T01:10:48.763Z,27.10
2019-02-11T01:13:27.511Z,27.10
2019-02-11T01:15:54.846Z,27.20
2019-02-11T01:18:27.835Z,27.20
2019-02-11T01:21:00.450Z,27.30
2019-02-11T01:23:32.893Z,27.30
2019-02-11T01:26:05.071Z,27.30
2019-02-11T01:28:37.544Z,27.40
2019-02-11T01:31:09.994Z,27.40
2019-02-11T01:33:42.575Z,27.60
2019-02-11T01:36:14.967Z,27.70
2019-02-11T01:38:47.158Z,27.70
2019-02-11T01:41:19.292Z,27.70
2019-02-11T01:43:51.465Z,28.00
2019-02-11T01:46:23.763Z,28.10
2019-02-11T01:48:56.293Z,28.00
2019-02-11T01:51:29.012Z,28.10
2019-02-11T01:54:01.208Z,28.30
2019-02-11T01:56:33.517Z,28.20
2019-02-11T01:59:05.923Z,28.50
2019-02-11T02:01:38.190Z,28.70
2019-02-11T02:04:10.597Z,28.90
2019-02-11T02:06:42.906Z,28.80
2019-02-11T02:09:15.364Z,28.50
2019-02-11T02:11:47.677Z,28.30
2019-02-11T02:14:20.058Z,28.40
2019-02-11T02:16:54.206Z,28.50
2019-02-11T02:19:26.534Z,28.70
2019-02-11T02:21:59.081Z,29.10
2019-02-11T02:24:31.458Z,29.20
2019-02-11T02:27:04.109Z,28.90
2019-02-11T02:29:36.816Z,29.00
2019-02-11T02:32:09.310Z,29.00
2019-02-11T02:34:41.498Z,28.80
2019-02-11T02:37:15.110Z,28.70
2019-02-11T02:39:47.358Z,28.70
2019-02-11T02:42:19.866Z,28.90
2019-02-11T02:44:52.077Z,29.10
2019-02-11T02:47:24.530Z,29.20
2019-02-11T02:49:57.014Z,29.50
2019-02-11T02:52:29.794Z,29.80
2019-02-11T02:55:02.078Z,30.20
2019-02-11T02:57:34.554Z,30.10
2019-02-11T03:00:09.247Z,30.20
2019-02-11T03:02:42.006Z,30.30
2019-02-11T03:05:14.500Z,30.40
2019-02-11T03:07:46.850Z,30.80
2019-02-11T03:10:19.141Z,30.70
2019-02-11T03:12:51.352Z,30.80
2019-02-11T03:15:23.657Z,31.10
2019-02-11T03:17:55.925Z,31.20
2019-02-11T03:20:28.282Z,31.10
2019-02-11T03:23:00.584Z,31.10
2019-02-11T03:25:32.893Z,31.30
2019-02-11T03:28:05.636Z,31.30
2019-02-11T03:30:38.266Z,31.50
2019-02-11T03:33:10.698Z,31.70
2019-02-11T03:35:42.928Z,31.50
2019-02-11T03:38:15.183Z,31.70
2019-02-11T03:40:47.767Z,32.10
2019-02-11T03:43:19.928Z,32.20
2019-02-11T03:45:52.236Z,32.20
2019-02-11T03:48:24.417Z,32.10
2019-02-11T03:50:56.873Z,32.20
2019-02-11T03:53:29.452Z,32.40
2019-02-11T03:56:02.131Z,32.40
2019-02-11T03:58:34.499Z,32.80
2019-02-11T04:01:06.979Z,32.40
2019-02-11T04:03:39.203Z,32.10
2019-02-11T04:06:11.929Z,32.00
2019-02-11T04:08:44.520Z,32.00
2019-02-11T04:11:17.455Z,32.40
2019-02-11T04:13:49.807Z,32.30
2019-02-11T04:16:22.412Z,32.20
2019-02-11T04:18:54.584Z,32.40
2019-02-11T04:21:26.714Z,32.40
2019-02-11T04:23:59.218Z,32.20
2019-02-11T04:26:32.815Z,32.70
2019-02-11T04:29:05.344Z,32.60
2019-02-11T04:31:37.797Z,32.80
2019-02-11T04:34:10.478Z,33.20
2019-02-11T04:36:42.882Z,33.40
2019-02-11T04:39:15.777Z,33.20
2019-02-11T04:41:47.969Z,33.00
2019-02-11T04:44:20.658Z,33.40
2019-02-11T04:46:53.569Z,33.90
2019-02-11T04:49:26.278Z,34.20
2019-02-11T04:51:58.959Z,34.30
2019-02-11T04:54:31.390Z,34.40
2019-02-11T04:57:03.554Z,34.40
2019-02-11T04:59:35.845Z,34.40
2019-02-11T05:02:08.338Z,34.50
2019-02-11T05:04:40.905Z,34.40
2019-02-11T05:07:13.186Z,34.60
2019-02-11T05:09:45.487Z,35.00
2019-02-11T05:12:17.699Z,34.80
2019-02-11T05:14:50.199Z,35.20
2019-02-11T05:17:22.551Z,35.40
2019-02-11T05:19:55.056Z,35.30
2019-02-11T05:22:27.404Z,35.30
2019-02-11T05:24:59.641Z,35.10
2019-02-11T05:27:32.114Z,35.40
2019-02-11T05:30:04.595Z,35.50
2019-02-11T05:32:37.186Z,35.50
2019-02-11T05:35:10.310Z,35.60
2019-02-11T05:37:44.220Z,36.00
2019-02-11T05:40:16.854Z,35.50
2019-02-11T05:42:49.271Z,35.40
2019-02-11T05:45:21.442Z,35.30
2019-02-11T05:47:53.962Z,35.60
2019-02-11T05:50:26.629Z,35.50
2019-02-11T05:52:59.209Z,35.50
2019-02-11T05:55:31.489Z,35.30
2019-02-11T05:58:04.007Z,35.70
2019-02-11T06:00:36.231Z,35.40
2019-02-11T06:03:09.623Z,35.70
2019-02-11T06:05:41.957Z,35.80
2019-02-11T06:08:14.287Z,36.40
2019-02-11T06:10:46.727Z,36.00
2019-02-11T06:13:19.372Z,35.90
2019-02-11T06:15:51.722Z,35.60
2019-02-11T06:18:24.358Z,35.60
2019-02-11T06:20:56.529Z,35.80
2019-02-11T06:23:29.686Z,36.00
2019-02-11T06:26:01.938Z,36.10
2019-02-11T06:28:34.390Z,36.60
2019-02-11T06:31:07.225Z,36.10
2019-02-11T06:33:39.491Z,36.30
2019-02-11T06:36:12.901Z,36.50
2019-02-11T06:38:45.589Z,36.30
2019-02-11T06:41:18.115Z,36.50
2019-02-11T06:43:50.462Z,36.50
2019-02-11T06:46:22.832Z,36.50
2019-02-11T06:48:55.581Z,36.40
2019-02-11T06:51:27.895Z,36.60
2019-02-11T06:54:00.669Z,36.70
2019-02-11T06:56:33.191Z,36.80
2019-02-11T06:59:06.089Z,36.80
2019-02-11T07:01:38.816Z,36.50
2019-02-11T07:04:11.558Z,36.20
2019-02-11T07:06:43.766Z,36.40
2019-02-11T07:09:16.322Z,36.80
2019-02-11T07:11:48.513Z,37.00
2019-02-11T07:14:20.693Z,37.30
2019-02-11T07:16:56.386Z,37.20
2019-02-11T07:19:29.041Z,37.30
2019-02-11T07:22:01.563Z,37.40
2019-02-11T07:24:34.463Z,37.00
2019-02-11T07:27:06.886Z,37.10
2019-02-11T07:29:39.163Z,37.30
2019-02-11T07:32:11.428Z,37.70
2019-02-11T07:34:43.727Z,37.60
2019-02-11T07:37:15.959Z,37.50
2019-02-11T07:39:48.496Z,37.20
2019-02-11T07:42:22.063Z,36.90
2019-02-11T07:44:55.561Z,36.80
2019-02-11T07:47:28.257Z,37.00
2019-02-11T07:50:00.934Z,37.30
2019-02-11T07:52:33.221Z,37.40
2019-02-11T07:57:57.271Z,37.10
2019-02-11T08:00:30.008Z,36.60
2019-02-11T08:03:02.613Z,37.10
2019-02-11T08:05:34.985Z,37.10
2019-02-11T08:08:07.521Z,37.10
2019-02-11T08:10:39.810Z,37.30
2019-02-11T08:13:12.135Z,37.20
2019-02-11T08:15:44.352Z,37.30
2019-02-11T08:18:17.650Z,36.90
2019-02-11T08:20:50.818Z,37.20
2019-02-11T08:23:23.171Z,37.00
2019-02-11T08:25:55.432Z,36.70
2019-02-11T08:28:27.553Z,36.70
2019-02-11T08:30:59.916Z,36.80
2019-02-11T08:33:32.384Z,36.80
2019-02-11T08:36:04.918Z,36.80
2019-02-11T08:38:37.594Z,36.50
2019-02-11T08:41:09.785Z,36.60
2019-02-11T08:43:42.204Z,36.40
2019-02-11T08:46:14.610Z,36.60
2019-02-11T08:48:47.046Z,36.50
2019-02-11T08:51:19.359Z,36.40
2019-02-11T08:53:51.874Z,36.50
2019-02-11T08:56:24.305Z,36.40
2019-02-11T08:58:56.643Z,36.50
2019-02-11T09:01:28.951Z,36.20
2019-02-11T09:04:01.240Z,36.30
2019-02-11T09:06:34.705Z,36.30
2019-02-11T09:09:07.938Z,36.10
2019-02-11T09:11:40.523Z,35.90
2019-02-11T09:14:12.809Z,35.90
2019-02-11T09:16:45.314Z,35.70
2019-02-11T09:19:17.970Z,36.00
2019-02-11T09:21:50.795Z,35.70
2019-02-11T09:24:23.629Z,35.60
2019-02-11T09:26:56.010Z,35.50
2019-02-11T09:29:28.490Z,35.30
2019-02-11T09:32:01.232Z,35.30
2019-02-11T09:34:33.590Z,35.40
2019-02-11T09:37:05.927Z,35.30
2019-02-11T09:39:38.178Z,35.30
2019-02-11T09:42:10.717Z,35.00
2019-02-11T09:44:43.847Z,34.90
2019-02-11T09:47:16.435Z,34.80
2019-02-11T09:49:51.557Z,34.80
2019-02-11T09:52:23.930Z,34.70
2019-02-11T09:54:56.873Z,34.60
2019-02-11T09:57:29.358Z,34.60
2019-02-11T10:00:01.710Z,34.20
2019-02-11T10:02:35.005Z,34.10
2019-02-11T10:05:08.281Z,34.20
2019-02-11T10:07:40.621Z,34.10
2019-02-11T10:10:13.402Z,34.00
2019-02-11T10:12:46.065Z,33.80
2019-02-11T10:15:19.279Z,33.70
2019-02-11T10:17:51.709Z,33.80
2019-02-11T10:20:24.144Z,33.70
2019-02-11T10:22:56.495Z,33.60
2019-02-11T10:25:30.887Z,33.60
2019-02-11T10:28:05.947Z,33.50
2019-02-11T10:30:38.514Z,33.40
2019-02-11T10:33:11.214Z,33.30
2019-02-11T10:35:43.647Z,33.20
2019-02-11T10:38:16.978Z,33.20
2019-02-11T10:40:49.344Z,33.10
2019-02-11T10:43:21.660Z,33.00
2019-02-11T10:45:54.138Z,32.80
2019-02-11T10:48:26.774Z,32.80
2019-02-11T10:50:59.123Z,32.70
2019-02-11T10:53:31.479Z,32.60
2019-02-11T10:56:04.438Z,32.30
2019-02-11T10:58:36.842Z,32.30
2019-02-11T11:01:09.626Z,32.10
2019-02-11T11:03:41.939Z,32.10
2019-02-11T11:06:14.382Z,32.00
2019-02-11T11:08:47.972Z,32.00
2019-02-11T11:11:20.439Z,31.90
2019-02-11T11:13:52.813Z,31.70
2019-02-11T11:16:29.592Z,31.70
2019-02-11T11:18:59.848Z,31.80
2019-02-11T11:21:32.330Z,31.70
2019-02-11T11:24:05.060Z,31.70
2019-02-11T11:26:37.253Z,31.60
2019-02-11T11:29:10.679Z,31.60
2019-02-11T11:31:43.071Z,31.60
2019-02-11T11:34:15.879Z,31.30
2019-02-11T11:36:48.094Z,31.20
2019-02-11T11:39:23.127Z,31.20
2019-02-11T11:41:55.511Z,31.10
2019-02-11T11:44:27.968Z,31.00
2019-02-11T11:47:00.564Z,30.90
2019-02-11T11:49:32.999Z,31.00
2019-02-11T11:52:05.638Z,31.00
2019-02-11T11:54:37.852Z,31.00
2019-02-11T11:57:10.347Z,30.90
2019-02-11T11:59:43.055Z,30.80
2019-02-11T12:02:16.596Z,30.70
2019-02-11T12:04:49.078Z,30.60
2019-02-11T12:07:21.706Z,30.60
2019-02-11T12:09:54.269Z,30.60
2019-02-11T12:12:26.848Z,30.60
2019-02-11T12:14:59.223Z,30.60
2019-02-11T12:17:31.728Z,30.60
2019-02-11T12:20:04.583Z,30.50
2019-02-11T12:22:37.743Z,30.50
2019-02-11T12:25:12.397Z,30.50
2019-02-11T12:27:44.934Z,30.50
2019-02-11T12:30:19.506Z,30.50
2019-02-11T12:32:54.757Z,30.50
2019-02-11T12:35:25.844Z,30.40
2019-02-11T12:37:58.009Z,30.50
2019-02-11T12:40:30.750Z,30.30
2019-02-11T12:43:03.056Z,30.20
2019-02-11T12:45:35.459Z,30.20
2019-02-11T12:48:09.353Z,30.20
2019-02-11T12:50:41.970Z,30.10
2019-02-11T12:53:14.446Z,30.00
2019-02-11T12:55:46.775Z,30.00
2019-02-11T12:58:18.976Z,30.00
2019-02-11T13:00:51.711Z,29.90
2019-02-11T13:03:25.119Z,29.80
2019-02-11T13:05:57.772Z,29.70
2019-02-11T13:08:30.358Z,29.70
2019-02-11T13:11:02.621Z,29.60
2019-02-11T13:13:34.821Z,29.60
2019-02-11T13:16:07.415Z,29.60
2019-02-11T13:18:40.281Z,29.40
2019-02-11T13:21:12.983Z,29.20
2019-02-11T13:23:45.431Z,29.30
2019-02-11T13:26:17.658Z,29.20
2019-02-11T13:28:50.078Z,29.30
2019-02-11T13:31:22.317Z,29.20
2019-02-11T13:33:54.567Z,29.30
2019-02-11T13:36:27.082Z,29.20
2019-02-11T13:38:59.574Z,29.00
2019-02-11T13:41:32.628Z,29.10
2019-02-11T13:44:05.155Z,29.10
2019-02-11T13:46:37.602Z,29.20
2019-02-11T13:49:11.057Z,29.30
2019-02-11T13:51:43.679Z,29.20
2019-02-11T13:54:16.057Z,29.10
2019-02-11T13:56:48.317Z,29.20
2019-02-11T13:59:20.709Z,29.20
2019-02-11T14:01:53.303Z,29.30
2019-02-11T14:04:28.307Z,29.20
2019-02-11T14:06:59.633Z,29.20
2019-02-11T14:09:32.149Z,29.10
2019-02-11T14:12:04.271Z,29.00
2019-02-11T14:14:36.378Z,29.00
2019-02-11T14:17:08.733Z,29.10
2019-02-11T14:19:40.925Z,29.00
2019-02-11T14:22:14.442Z,28.90
2019-02-11T14:24:47.081Z,28.90
2019-02-11T14:27:19.326Z,28.90
2019-02-11T14:29:51.585Z,28.80
2019-02-11T14:32:36.173Z,28.70
2019-02-11T14:35:09.617Z,28.70
2019-02-11T14:37:42.510Z,28.70
2019-02-11T14:40:16.656Z,28.80
2019-02-11T14:42:49.109Z,28.70
2019-02-11T14:45:22.839Z,28.80
2019-02-11T14:47:55.523Z,28.90
2019-02-11T14:50:28.111Z,28.80
2019-02-11T14:53:00.612Z,28.80
2019-02-11T14:55:33.158Z,28.80
2019-02-11T14:58:06.088Z,28.70
2019-02-11T15:00:39.177Z,28.80
2019-02-11T15:03:11.440Z,28.80
2019-02-11T15:05:43.679Z,28.70
2019-02-11T15:08:17.561Z,28.60
2019-02-11T15:10:49.790Z,28.60
2019-02-11T15:13:22.381Z,28.50
2019-02-11T15:15:54.691Z,28.50
2019-02-11T15:18:34.080Z,28.40
2019-02-11T15:21:00.668Z,28.40
2019-02-11T15:23:36.697Z,28.30
2019-02-11T15:26:08.989Z,28.20
2019-02-11T15:28:41.674Z,28.20
2019-02-11T15:31:13.763Z,28.20
2019-02-11T15:33:46.635Z,28.10
2019-02-11T15:36:18.871Z,28.20
2019-02-11T15:38:51.149Z,28.00
2019-02-11T15:41:23.382Z,28.10
2019-02-11T15:43:55.516Z,28.10
2019-02-11T15:46:28.086Z,28.00
2019-02-11T15:49:00.409Z,27.90
2019-02-11T15:51:32.850Z,27.90
2019-02-11T15:54:05.639Z,27.90
2019-02-11T15:56:38.286Z,27.70
2019-02-11T15:59:10.592Z,27.70
2019-02-11T16:01:42.818Z,27.70
2019-02-11T16:04:17.029Z,27.90
2019-02-11T16:06:49.257Z,27.80
2019-02-11T16:09:21.406Z,27.80
2019-02-11T16:11:54.478Z,27.70
2019-02-11T16:14:26.940Z,27.80
2019-02-11T16:17:00.086Z,27.70
2019-02-11T16:19:32.549Z,27.70
2019-02-11T16:22:04.982Z,27.60
2019-02-11T16:24:37.404Z,27.60
2019-02-11T16:27:10.676Z,27.60
2019-02-11T16:29:43.277Z,27.60
2019-02-11T16:32:16.246Z,27.60
2019-02-11T16:34:48.640Z,27.60
2019-02-11T16:37:21.419Z,27.60
2019-02-11T16:39:53.918Z,27.40
2019-02-11T16:42:26.413Z,27.50
2019-02-11T16:44:59.357Z,27.50
2019-02-11T16:47:31.709Z,27.40
2019-02-11T16:50:04.337Z,27.30
2019-02-11T16:52:36.929Z,27.30
2019-02-11T16:55:11.679Z,27.40
2019-02-11T16:57:43.888Z,27.50
2019-02-11T17:00:18.707Z,27.40
2019-02-11T17:02:51.009Z,27.30
2019-02-11T17:05:23.965Z,27.30
2019-02-11T17:07:56.266Z,27.20
2019-02-11T17:10:28.812Z,27.10
2019-02-11T17:13:01.166Z,27.20
2019-02-11T17:15:33.816Z,27.30
2019-02-11T17:18:06.404Z,27.30
2019-02-11T17:20:39.612Z,27.10
2019-02-11T17:23:11.934Z,27.00
2019-02-11T17:25:44.690Z,27.00
2019-02-11T17:28:16.932Z,27.20
2019-02-11T17:30:49.241Z,27.10
2019-02-11T17:33:21.490Z,26.90
2019-02-11T17:35:54.083Z,26.80
2019-02-11T17:38:26.432Z,26.70
2019-02-11T17:40:59.040Z,26.60
2019-02-11T17:43:31.349Z,26.80
2019-02-11T17:46:03.686Z,26.70
2019-02-11T17:48:36.127Z,26.70
2019-02-11T17:51:08.932Z,26.70
2019-02-11T17:53:42.195Z,26.90
2019-02-11T17:56:14.560Z,26.90
2019-02-11T17:58:47.186Z,26.90
2019-02-11T18:01:19.385Z,26.80
2019-02-11T18:03:52.676Z,26.90
2019-02-11T18:06:24.981Z,26.80
2019-02-11T18:08:57.815Z,26.80
2019-02-11T18:11:30.017Z,26.70
2019-02-11T18:14:02.692Z,26.80
2019-02-11T18:16:35.057Z,26.80
2019-02-11T18:19:07.492Z,26.80
2019-02-11T18:21:39.934Z,26.80
2019-02-11T18:24:12.174Z,26.80
2019-02-11T18:26:44.486Z,26.80
2019-02-11T18:29:16.695Z,26.80
2019-02-11T18:31:49.252Z,26.70
2019-02-11T18:34:21.489Z,26.70
2019-02-11T18:36:54.221Z,26.50
2019-02-11T18:39:26.476Z,26.50
2019-02-11T18:41:59.021Z,26.50
2019-02-11T18:44:31.208Z,26.50
2019-02-11T18:47:03.842Z,26.50
2019-02-11T18:49:36.196Z,26.40
2019-02-11T18:52:08.896Z,26.50
2019-02-11T18:54:41.097Z,26.60
2019-02-11T18:57:13.403Z,26.60
2019-02-11T18:59:45.702Z,26.60
2019-02-11T19:02:18.011Z,26.60
2019-02-11T19:04:50.341Z,26.70
2019-02-11T19:07:22.720Z,26.50
2019-02-11T19:09:55.154Z,26.50
2019-02-11T19:12:27.546Z,26.50
2019-02-11T19:14:59.801Z,26.60
2019-02-11T19:17:32.568Z,26.40
2019-02-11T19:20:06.407Z,26.40
2019-02-11T19:22:38.939Z,26.40
2019-02-11T19:25:12.587Z,26.40
2019-02-11T19:27:44.732Z,26.30
2019-02-11T19:30:20.941Z,26.20
2019-02-11T19:32:53.419Z,26.00
2019-02-11T19:35:25.841Z,26.20
2019-02-11T19:37:59.494Z,26.20
2019-02-11T19:40:31.945Z,26.20
2019-02-11T19:43:04.421Z,26.20
2019-02-11T19:45:36.723Z,26.20
2019-02-11T19:48:08.924Z,26.20
2019-02-11T19:50:41.452Z,25.70
2019-02-11T19:53:14.609Z,25.60
2019-02-11T19:55:46.928Z,25.70
2019-02-11T19:58:19.132Z,25.70
2019-02-11T20:00:51.589Z,25.70
2019-02-11T20:03:23.792Z,25.50
2019-02-11T20:05:56.147Z,25.50
2019-02-11T20:08:28.334Z,25.50
2019-02-11T20:11:00.589Z,25.50
2019-02-11T20:13:32.906Z,25.40
2019-02-11T20:16:05.288Z,25.30
2019-02-11T20:18:37.632Z,25.30
2019-02-11T20:21:09.891Z,25.40
2019-02-11T20:23:43.065Z,25.40
2019-02-11T20:26:15.461Z,25.30
2019-02-11T20:28:48.015Z,25.30
2019-02-11T20:31:20.100Z,25.30
2019-02-11T20:33:52.621Z,25.40
2019-02-11T20:36:24.860Z,25.40
2019-02-11T20:38:57.210Z,25.30
2019-02-11T20:41:29.570Z,25.20
2019-02-11T20:44:02.067Z,25.30
2019-02-11T20:46:34.667Z,25.20
2019-02-11T20:49:07.265Z,25.00
2019-02-11T20:51:39.590Z,24.90
2019-02-11T20:54:11.952Z,24.90
2019-02-11T20:56:44.547Z,25.10
2019-02-11T20:59:16.899Z,25.00
2019-02-11T21:01:49.186Z,24.90
2019-02-11T21:04:21.658Z,24.90
2019-02-11T21:06:53.969Z,24.90
2019-02-11T21:09:26.344Z,24.90
2019-02-11T21:11:58.655Z,25.00
2019-02-11T21:14:31.368Z,25.00
2019-02-11T21:17:03.607Z,25.10
2019-02-11T21:19:36.381Z,24.90
2019-02-11T21:22:08.709Z,24.70
2019-02-11T21:24:41.065Z,24.60
2019-02-11T21:27:14.003Z,24.70
2019-02-11T21:29:46.328Z,24.80
2019-02-11T21:32:19.074Z,24.80
2019-02-11T21:34:51.995Z,24.70
2019-02-11T21:37:24.402Z,24.70
2019-02-11T21:39:57.054Z,24.90
2019-02-11T21:42:29.583Z,24.90
2019-02-11T21:45:02.196Z,24.90
2019-02-11T21:47:35.387Z,24.80
2019-02-11T21:50:10.023Z,24.80
2019-02-11T21:52:42.539Z,24.60
2019-02-11T21:55:17.489Z,24.50
2019-02-11T21:57:49.968Z,24.60
2019-02-11T22:00:24.186Z,24.50
2019-02-11T22:02:56.607Z,24.50
2019-02-11T22:05:29.164Z,24.50
2019-02-11T22:08:01.368Z,24.40
2019-02-11T22:10:33.693Z,24.40
2019-02-11T22:13:05.919Z,24.40
2019-02-11T22:15:38.168Z,24.40
2019-02-11T22:18:10.393Z,24.40
2019-02-11T22:20:42.886Z,24.30
2019-02-11T22:23:15.079Z,24.20
2019-02-11T22:25:47.420Z,24.30
2019-02-11T22:28:19.730Z,24.30
2019-02-11T22:30:52.526Z,24.30
2019-02-11T22:33:25.175Z,24.20
2019-02-11T22:35:57.616Z,24.20
2019-02-11T22:38:29.970Z,24.30
2019-02-11T22:41:02.423Z,24.10
2019-02-11T22:43:35.289Z,24.10
2019-02-11T22:46:08.014Z,24.00
2019-02-11T22:48:40.485Z,24.10
2019-02-11T22:51:13.126Z,24.00
2019-02-11T22:53:45.575Z,24.00
2019-02-11T22:56:17.866Z,24.00
2019-02-11T22:58:50.282Z,24.10
2019-02-11T23:01:22.936Z,24.10
2019-02-11T23:03:56.598Z,24.10
2019-02-11T23:06:30.018Z,24.00
2019-02-11T23:09:02.341Z,24.10
2019-02-11T23:11:36.058Z,24.10
2019-02-11T23:14:08.703Z,23.80
2019-02-11T23:16:41.024Z,23.90
2019-02-11T23:19:13.507Z,23.90
2019-02-11T23:21:45.840Z,24.00
2019-02-11T23:24:18.382Z,23.90
2019-02-11T23:26:50.595Z,23.60
2019-02-11T23:29:23.406Z,23.60
2019-02-11T23:31:55.588Z,23.70
2019-02-11T23:34:27.887Z,23.90
2019-02-11T23:37:00.769Z,23.90
2019-02-11T23:39:33.979Z,23.90
2019-02-11T23:42:06.381Z,23.80
2019-02-11T23:44:38.952Z,23.70
2019-02-11T23:47:11.330Z,23.90
2019-02-11T23:49:43.732Z,23.80
2019-02-11T23:52:16.509Z,23.90
2019-02-11T23:54:49.951Z,24.00
2019-02-11T23:57:22.386Z,23.70
2019-02-11T23:59:54.563Z,23.60
